Impacts METAR Board
IDs:

@TOP -

Updated at: 2300 UTC 01 Feb 2023
Potential Impact None Slight Moderate High
Time 01/11Z 01/12Z 01/13Z 01/14Z 01/15Z 01/16Z 01/17Z 01/18Z 01/19Z 01/20Z 01/21Z 01/22Z 01/23Z
Temp
Dewpt
Altim
VIS
CIG
Cover
FltCat
WX
WDir
WSpd
WGst
Raw hourly METARs














KSEA - Seattle-Tacoma Intl, WA, US

Updated at: 2300 UTC 01 Feb 2023
Potential Impact None Slight Moderate High
Time 01/11Z 01/12Z 01/13Z 01/14Z 01/15Z 01/16Z 01/17Z 01/18Z 01/19Z 01/20Z 01/21Z 01/22Z 01/23Z
Temp35 34 34 34 34 33 36 38 41 44 46 44 46
Dewpt24 24 24 24 23 23 24 24 24 27 26 27 27
Altim30.16 30.15 30.15 30.14 30.14 30.15 30.15 30.15 30.15 30.14 30.13 30.13 30.12
VIS10 10 10 10 10 10 10 10 10 10 10 10 10
CIG150 140 140 130 190 250 250 250 250 250 250 160 160
CoverOVCOVCOVCBKNBKNBKNOVCBKNBKNBKNBKNBKNBKN
FltCatVFRVFRVFRVFRVFRVFRVFRVFRVFRVFRVFRVFRVFR
WX--------------------------
WDir14012014014014014014015017001800150
WSpd3 5 7 6 6 4 7 6 4 3 6 0 3
WGst-- -- -- -- -- -- -- -- -- -- -- -- --
Raw hourly METARs
KSEA 011053Z 14003KT 10SM FEW037 OVC150 02/M04 A3016 RMK AO2 SLP223 T00171044
KSEA 011153Z 12005KT 10SM OVC140 01/M04 A3015 RMK AO2 SLP220 T00111044 10033 20006 58002
KSEA 011253Z 14007KT 10SM OVC140 01/M04 A3015 RMK AO2 SLP218 T00111044
KSEA 011353Z 14006KT 10SM BKN130 01/M04 A3014 RMK AO2 SLP217 T00111044
KSEA 011453Z 14006KT 10SM SCT130 BKN190 01/M05 A3014 RMK AO2 SLP216 T00111050 56004
KSEA 011553Z 14004KT 10SM SCT140 BKN250 01/M05 A3015 RMK AO2 SLP220 ACSL DSNT SE T00061050
KSEA 011653Z 14007KT 10SM FEW140 OVC250 02/M04 A3015 RMK AO2 SLP219 ACSL DSNT SE T00221044
KSEA 011753Z 15006KT 10SM FEW140 BKN250 03/M04 A3015 RMK AO2 SLP219 ACSL DSNT SE T00331044 10033 20000 50004
KSEA 011853Z 17004KT 10SM FEW140 BKN250 05/M04 A3015 RMK AO2 SLP220 ACSL DSNT SE T00501044
KSEA 011953Z VRB03KT 10SM FEW140 BKN250 07/M03 A3014 RMK AO2 SLP217 T00671028
KSEA 012053Z 18006KT 10SM SCT160 BKN250 08/M03 A3013 RMK AO2 SLP213 ACSL DSNT SE T00781033 58005
KSEA 012153Z 00000KT 10SM BKN160 BKN250 07/M03 A3013 RMK AO2 SLP213 ACSL DSNT SE T00671028
KSEA 012253Z 15003KT 10SM BKN160 BKN250 08/M03 A3012 RMK AO2 SLP209 ACSL DSNT SE T00781028

KPDX - Portland Intl Arpt, OR, US

Updated at: 2300 UTC 01 Feb 2023
Potential Impact None Slight Moderate High
Time 01/11Z 01/12Z 01/13Z 01/14Z 01/15Z 01/16Z 01/17Z 01/18Z 01/19Z 01/20Z 01/21Z 01/22Z 01/23Z
Temp32 29 30 30 30 30 32 36 38 42 45 45 48
Dewpt25 24 25 25 26 25 27 27 26 26 25 25 25
Altim30.19 30.19 30.19 30.19 30.19 30.20 30.19 30.20 30.20 30.18 30.16 30.15 30.13
VIS10 10 10 10 10 9 10 10 10 10 10 10 10
CIG-- 160 160 -- 250 250 250 210 250 -- -- -- 250
CoverSCTBKNBKNFEWBKNBKNBKNBKNBKNSCTSCTSCTBKN
FltCatVFRVFRVFRVFRVFRVFRVFRVFRVFRVFRVFRVFRVFR
WX--------------------------
WDir900000011090110110100080
WSpd3 0 0 0 0 0 5 4 5 8 5 0 4
WGst-- -- -- -- -- -- -- -- -- -- -- -- --
Raw hourly METARs
KPDX 011053Z 09003KT 10SM SCT200 00/M04 A3019 RMK AO2 SLP224 T00001039
KPDX 011153Z 00000KT 10SM BKN160 M02/M04 A3019 RMK AO2 SLP224 T10171044 10017 21028 51002
KPDX 011253Z 00000KT 10SM BKN160 M01/M04 A3019 RMK AO2 SLP222 T10111039
KPDX 011353Z 00000KT 10SM FEW160 M01/M04 A3019 RMK AO2 SLP221 T10111039
KPDX 011453Z 00000KT 10SM SCT180 BKN250 M01/M03 A3019 RMK AO2 SLP224 T10111033 55000
KPDX 011553Z 00000KT 9SM SCT180 BKN250 M01/M04 A3020 RMK AO2 SLP224 T10111039
KPDX 011653Z 11005KT 10SM SCT180 BKN250 00/M03 A3019 RMK AO2 SLP223 T00001028
KPDX 011753Z 09004KT 10SM FEW180 BKN210 BKN250 02/M03 A3020 RMK AO2 SLP226 T00221028 10022 21028 53002
KPDX 011853Z 11005KT 10SM FEW180 FEW210 BKN250 03/M03 A3020 RMK AO2 SLP227 T00331033
KPDX 011953Z 11008KT 10SM FEW210 SCT250 06/M03 A3018 RMK AO2 SLP219 T00561033
KPDX 012053Z 10005KT 10SM FEW210 SCT250 07/M04 A3016 RMK AO2 SLP214 T00721039 58012
KPDX 012153Z 00000KT 10SM FEW200 SCT250 07/M04 A3015 RMK AO2 SLP210 T00721039
KPDX 012253Z 08004KT 10SM FEW200 BKN250 09/M04 A3013 RMK AO2 SLP203 T00891039

KMSP - Minneapolis-St Paul, MN, US

Updated at: 2300 UTC 01 Feb 2023
Potential Impact None Slight Moderate High
Time 01/11Z 01/12Z 01/13Z 01/14Z 01/15Z 01/16Z 01/17Z 01/18Z 01/19Z 01/20Z 01/21Z 01/22Z 01/23Z
Temp3 2 2 2 3 6 10 14 17 20 20 19 19
Dewpt-5 -5 -6 -5 -3 -2 -0 1 2 3 3 5 6
Altim30.17 30.18 30.19 30.19 30.18 30.19 30.20 30.17 30.14 30.11 30.10 30.08 30.08
VIS10 10 10 10 10 10 10 10 10 10 10 10 10
CIG-- -- -- -- -- -- -- 110 95 90 -- -- --
CoverCLRCLRCLRCLRCLRFEWSCTBKNBKNBKNFEWSCTSCT
FltCatVFRVFRVFRVFRVFRVFRVFRVFRVFRVFRVFRVFRVFR
WX--------------------------
WDir22002502200160190170200250210160160
WSpd3 0 4 5 0 3 3 3 4 5 7 7 8
WGst-- -- -- -- -- -- -- -- -- -- -- -- --
Raw hourly METARs
KMSP 011053Z 22003KT 10SM CLR M16/M21 A3017 RMK AO2 SLP238 T11611206
KMSP 011153Z 00000KT 10SM CLR M17/M21 A3018 RMK AO2 SLP242 4/010 T11671206 11128 21167 53005
KMSP 011253Z 25004KT 10SM CLR M17/M21 A3019 RMK AO2 SLP244 T11671211
KMSP 011353Z 22005KT 10SM CLR M17/M21 A3019 RMK AO2 SLP244 T11671206
KMSP 011453Z 00000KT 10SM CLR M16/M19 A3018 RMK AO2 SLP242 T11611194 50000
KMSP 011553Z 16003KT 10SM FEW250 M14/M19 A3019 RMK AO2 SLP244 T11441189
KMSP 011653Z 19003KT 10SM FEW100 SCT250 M12/M18 A3020 RMK AO2 SLP246 T11221178
KMSP 011753Z 17003KT 10SM BKN110 BKN140 M10/M17 A3017 RMK AO2 SLP235 4/010 T11001172 11100 21172 58003
KMSP 011853Z 20004KT 10SM FEW065 BKN095 BKN140 M08/M17 A3014 RMK AO2 PRESFR SLP223 T10831167
KMSP 011953Z 25005KT 10SM FEW065 BKN090 BKN140 M07/M16 A3011 RMK AO2 SLP216 T10671161
KMSP 012053Z 21007KT 10SM FEW075 M07/M16 A3010 RMK AO2 SLP212 T10671161 56022
KMSP 012153Z 16007KT 10SM FEW075 SCT150 M07/M15 A3008 RMK AO2 SLP205 T10721150
KMSP 012253Z 16008KT 10SM FEW060 SCT095 SCT150 M07/M14 A3008 RMK AO2 SLP203 T10721144

KBOS - Boston/Logan Intl, MA, US

Updated at: 2300 UTC 01 Feb 2023
Potential Impact None Slight Moderate High
Time 01/11Z 01/12Z 01/13Z 01/14Z 01/15Z 01/16Z 01/17Z 01/18Z 01/19Z 01/20Z 01/21Z 01/22Z 01/23Z
Temp22 22 21 24 25 28 28 28 29 29 29 28 30
Dewpt2 2 3 8 10 13 14 16 16 15 15 14 5
Altim30.27 30.28 30.30 30.30 30.30 30.28 30.25 30.23 30.21 30.20 30.20 30.21 30.24
VIS10 10 10 10 10 10 10 10 10 10 10 10 10
CIG55 70 -- -- 27 -- -- -- -- -- -- -- --
CoverOVCBKNFEWSCTBKNFEWSCTSCTFEWFEWFEWFEWCLR
FltCatVFRVFRVFRVFRMVFRVFRVFRVFRVFRVFRVFRVFRVFR
WX--------------------------
WDir330340034033010013012013000300
WSpd7 10 4 6 7 4 0 5 7 4 6 0 7
WGst-- -- -- -- -- -- -- -- -- -- -- -- --
Raw hourly METARs
KBOS 011054Z 33007KT 10SM BKN055 OVC070 M06/M17 A3027 RMK AO2 SLP250 T10561167
KBOS 011154Z 34010KT 10SM BKN070 BKN140 M06/M17 A3028 RMK AO2 SLP253 T10561167 11050 21056 53005
KBOS 011254Z VRB04KT 10SM FEW035 FEW075 FEW140 M06/M16 A3030 RMK AO2 SLP258 T10611161
KBOS 011354Z 34006KT 10SM FEW029 SCT070 M04/M13 A3030 RMK AO2 SLP261 T10441133
KBOS 011454Z 33007KT 310V010 10SM BKN027 BKN070 M04/M12 A3030 RMK AO2 SLP258 T10391122 50005
KBOS 011554Z 01004KT 10SM FEW028 M02/M11 A3028 RMK AO2 SLP252 T10221106
KBOS 011654Z 00000KT 10SM SCT033 M02/M10 A3025 RMK AO2 SLP242 T10221100
KBOS 011754Z 13005KT 10SM SCT037 M02/M09 A3023 RMK AO2 SLP235 T10221089 11022 21061 58023
KBOS 011854Z 12007KT 10SM FEW042 M02/M09 A3021 RMK AO2 SLP228 T10171089
KBOS 011954Z 13004KT 10SM FEW045 M02/M09 A3020 RMK AO2 SLP227 T10171094
KBOS 012054Z VRB06KT 10SM FEW045 M02/M09 A3020 RMK AO2 SLP226 T10171094 56009
KBOS 012154Z 00000KT 10SM FEW045 M02/M10 A3021 RMK AO2 SLP229 T10221100
KBOS 012254Z 30007KT 10SM CLR M01/M15 A3024 RMK AO2 SLP238 T10111150

KDTW - Detroit Metro/Wayne, MI, US

Updated at: 2300 UTC 01 Feb 2023
Potential Impact None Slight Moderate High
Time 01/11Z 01/12Z 01/13Z 01/14Z 01/15Z 01/16Z 01/17Z 01/18Z 01/19Z 01/20Z 01/21Z 01/22Z 01/23Z
Temp8 8 9 10 15 18 20 22 23 24 24 22 20
Dewpt1 2 2 3 6 9 10 10 11 11 8 8 6
Altim30.33 30.33 30.35 30.37 30.37 30.38 30.37 30.34 30.32 30.30 30.28 30.29 30.27
VIS10 10 8 8 10 10 10 10 10 10 10 10 10
CIG80 -- 75 -- -- -- -- -- -- -- -- -- --
CoverBKNSCTOVCSCTCLRFEWFEWFEWFEWFEWFEWFEWFEW
FltCatVFRVFRVFRVFRVFRVFRVFRVFRVFRVFRVFRVFRVFR
WX--------------------------
WDir230230230230230230220230230250230210220
WSpd8 8 8 10 8 10 12 10 15 13 11 13 11
WGst-- -- -- -- -- -- -- -- -- -- -- -- --
Raw hourly METARs
KDTW 011053Z 23008KT 10SM SCT025 BKN080 BKN200 M13/M17 A3033 RMK AO2 SLP283 T11331172
KDTW 011153Z 23008KT 10SM FEW025 SCT080 SCT200 M13/M17 A3033 RMK AO2 SLP285 T11331167 11117 21133 51008
KDTW 011253Z 23008KT 8SM SCT026 BKN075 OVC200 M13/M17 A3035 RMK AO2 SLP290 T11281167
KDTW 011353Z 23010KT 8SM FEW026 SCT200 M12/M16 A3037 RMK AO2 SLP297 T11221161
KDTW 011453Z 23008KT 10SM CLR M09/M14 A3037 RMK AO2 SLP298 T10941144 51013
KDTW 011553Z 23010KT 10SM FEW200 M08/M13 A3038 RMK AO2 SLP298 T10781128
KDTW 011653Z 22012KT 10SM FEW022 FEW200 M07/M12 A3037 RMK AO2 SLP296 T10671122
KDTW 011753Z 23010KT 10SM FEW024 FEW200 M06/M12 A3034 RMK AO2 SLP287 T10561122 11056 21133 58009
KDTW 011853Z 23015KT 10SM FEW026 FEW200 M05/M12 A3032 RMK AO2 SLP281 T10501117
KDTW 011953Z 25013KT 10SM FEW030 M04/M12 A3030 RMK AO2 SLP273 T10441117
KDTW 012053Z 23011KT 10SM FEW250 M04/M13 A3028 RMK AO2 SLP267 T10441133 58020
KDTW 012153Z 21013KT 10SM FEW250 M06/M13 A3029 RMK AO2 SLP268 T10561133
KDTW 012253Z 22011KT 10SM FEW250 M07/M14 A3027 RMK AO2 SLP264 T10671144

KORD - Chicago/O'Hare Intl, IL, US

Updated at: 2300 UTC 01 Feb 2023
Potential Impact None Slight Moderate High
Time 01/11Z 01/12Z 01/13Z 01/14Z 01/15Z 01/16Z 01/17Z 01/18Z 01/19Z 01/20Z 01/21Z 01/22Z 01/23Z
Temp7 7 8 10 14 17 20 23 25 26 27 27 26
Dewpt-3 -3 -3 -1 -0 2 2 5 7 6 7 7 8
Altim30.33 30.33 30.33 30.34 30.34 30.34 30.35 30.33 30.29 30.25 30.24 30.23 30.24
VIS10 10 10 10 10 10 10 10 10 10 10 10 10
CIG-- -- -- -- -- -- -- -- -- -- -- -- --
CoverCLRCLRCLRCLRFEWFEWFEWFEWFEWFEWFEWFEWFEW
FltCatVFRVFRVFRVFRVFRVFRVFRVFRVFRVFRVFRVFRVFR
WX--------------------------
WDir230220220230220220220230220220210210230
WSpd7 8 8 8 10 9 11 11 11 15 16 12 11
WGst-- -- -- -- 18 -- -- -- 20 21 21 -- 18
Raw hourly METARs
KORD 011051Z 23007KT 10SM CLR M14/M19 A3033 RMK AO2 SLP286 T11391194
KORD 011151Z 22008KT 10SM CLR M14/M19 A3033 RMK AO2 SLP287 4/003 T11391194 11133 21144 55000
KORD 011251Z 22008KT 10SM CLR M13/M19 A3033 RMK AO2 SLP286 T11331194
KORD 011351Z 23008KT 10SM CLR M12/M18 A3034 RMK AO2 SLP289 T11221183
KORD 011451Z 22010G18KT 10SM FEW250 M10/M18 A3034 RMK AO2 SLP290 T11001178 53004
KORD 011551Z 22009KT 10SM FEW250 M08/M17 A3034 RMK AO2 SLP289 T10831167
KORD 011651Z 22011KT 10SM FEW250 M07/M17 A3035 RMK AO2 SLP291 T10671167
KORD 011751Z 23011KT 10SM FEW250 M05/M15 A3033 RMK AO2 SLP284 4/003 933004 T10501150 11050 21139 58004
KORD 011851Z 22011G20KT 10SM FEW250 M04/M14 A3029 RMK AO2 SLP270 T10391139
KORD 011951Z 22015G21KT 10SM FEW250 M03/M14 A3025 RMK AO2 SLP258 T10331144
KORD 012051Z 21016G21KT 10SM FEW250 M03/M14 A3024 RMK AO2 SLP253 T10281139 56030
KORD 012151Z 21012KT 10SM FEW250 M03/M14 A3023 RMK AO2 SLP248 T10281139
KORD 012251Z 23011G18KT 10SM FEW250 M03/M13 A3024 RMK AO2 SLP252 T10331133

KMDW - Chicago/Midway Intl, IL, US

Updated at: 2300 UTC 01 Feb 2023
Potential Impact None Slight Moderate High
Time 01/11Z 01/12Z 01/13Z 01/14Z 01/15Z 01/16Z 01/17Z 01/18Z 01/19Z 01/20Z 01/21Z 01/22Z 01/23Z
Temp6 7 8 9 13 18 20 24 25 27 27 28 27
Dewpt-3 -1 -2 -1 1 3 5 6 6 5 7 7 9
Altim30.36 30.36 30.35 30.36 30.37 30.37 30.37 30.34 30.30 30.28 30.26 30.25 30.24
VIS10 10 10 10 10 10 10 10 10 10 10 10 10
CIG-- -- -- -- -- -- -- -- -- -- -- -- --
CoverCLRCLRFEWFEWFEWFEWFEWFEWFEWFEWFEWFEWFEW
FltCatVFRVFRVFRVFRVFRVFRVFRVFRVFRVFRVFRVFRVFR
WX--------------------------
WDir210210220220220220210240230230230210200
WSpd6 6 7 7 9 8 11 12 13 14 11 12 10
WGst-- -- -- -- -- -- -- -- -- -- -- -- --
Raw hourly METARs
KMDW 011053Z 21006KT 10SM CLR M14/M19 A3036 RMK AO2 SLP303 T11441194
KMDW 011153Z 21006KT 10SM CLR M14/M18 A3036 RMK AO2 SLP304 4/001 T11391183 11133 21144 53001
KMDW 011253Z 22007KT 10SM FEW250 M13/M19 A3035 RMK AO2 SLP303 T11331189
KMDW 011353Z 22007KT 10SM FEW250 M13/M18 A3036 RMK AO2 SLP307 T11281183
KMDW 011453Z 22009KT 10SM FEW250 M11/M17 A3037 RMK AO2 SLP307 T11061172 53003
KMDW 011553Z 22008KT 10SM FEW250 M08/M16 A3037 RMK AO2 SLP305 T10781161
KMDW 011653Z 21011KT 10SM FEW250 M07/M15 A3037 RMK AO2 SLP306 T10671150
KMDW 011753Z 24012KT 10SM FEW250 M04/M14 A3034 RMK AO2 SLP296 4/001 T10441144 11044 21139 58008
KMDW 011853Z 23013KT 10SM FEW250 M04/M14 A3030 RMK AO2 SLP281 T10391144
KMDW 011953Z 23014KT 10SM FEW250 M03/M15 A3028 RMK AO2 SLP272 T10281150
KMDW 012053Z 23011KT 10SM FEW250 M03/M14 A3026 RMK AO2 SLP267 T10281139 56027
KMDW 012153Z 21012KT 10SM FEW250 M02/M14 A3025 RMK AO2 SLP265 T10221139
KMDW 012253Z 20010KT 10SM FEW250 M03/M13 A3024 RMK AO2 SLP261 T10281128

KCLE - Cleveland/Hopkins In, OH, US

Updated at: 2300 UTC 01 Feb 2023
Potential Impact None Slight Moderate High
Time 01/11Z 01/12Z 01/13Z 01/14Z 01/15Z 01/16Z 01/17Z 01/18Z 01/19Z 01/20Z 01/21Z 01/22Z 01/23Z
Temp14 14 14 16 19 21 23 24 26 26 27 27 25
Dewpt6 7 6 6 7 7 8 8 9 9 9 10 9
Altim30.31 30.33 30.34 30.36 30.38 30.38 30.37 30.34 30.32 30.30 30.29 30.29 30.27
VIS10 10 10 10 10 10 10 10 10 10 10 10 10
CIG-- -- -- -- -- -- -- -- -- -- -- -- --
CoverFEWFEWFEWFEWSCTFEWFEWFEWFEWFEWCLRCLRCLR
FltCatVFRVFRVFRVFRVFRVFRVFRVFRVFRVFRVFRVFRVFR
WX--------------------------
WDir220230230240270270230270270220250240220
WSpd5 5 6 7 8 7 6 7 8 4 4 7 6
WGst-- -- -- -- -- -- -- -- -- -- -- -- --
Raw hourly METARs
KCLE 011051Z 22005KT 10SM FEW025 M10/M14 A3031 RMK AO2 SLP298 T11001144
KCLE 011151Z 23005KT 10SM FEW025 FEW250 M10/M14 A3033 RMK AO2 SLP303 60000 T11001139 11083 21100 53010
KCLE 011251Z 23006KT 10SM FEW024 FEW250 M10/M14 A3034 RMK AO2 SLP308 T11001144
KCLE 011351Z 24007KT 10SM FEW024 FEW250 M09/M14 A3036 RMK AO2 SLP312 T10891144
KCLE 011451Z 27008KT 10SM SCT025 SCT250 M07/M14 A3038 RMK AO2 SLP319 T10721139 53016
KCLE 011551Z 27007KT 10SM FEW025 FEW250 M06/M14 A3038 RMK AO2 SLP317 T10611139
KCLE 011651Z 23006KT 10SM FEW025 FEW250 M05/M13 A3037 RMK AO2 SLP315 T10501133
KCLE 011751Z 27007KT 10SM FEW025 FEW250 M04/M13 A3034 RMK AO2 SLP304 T10441133 11039 21100 58014
KCLE 011851Z 27008KT 10SM FEW026 FEW250 M03/M13 A3032 RMK AO2 SLP297 T10331128
KCLE 011951Z 22004KT 10SM FEW026 FEW250 M03/M13 A3030 RMK AO2 SLP289 T10331128
KCLE 012051Z 25004KT 10SM CLR M03/M13 A3029 RMK AO2 SLP287 T10281128 56017
KCLE 012151Z 24007KT 10SM CLR M03/M12 A3029 RMK AO2 SLP288 T10281122
KCLE 012251Z 22006KT 10SM CLR M04/M13 A3027 RMK AO2 SLP282 T10391128

KLGA - New York/La Guardia, NY, US

Updated at: 2300 UTC 01 Feb 2023
Potential Impact None Slight Moderate High
Time 01/11Z 01/12Z 01/13Z 01/14Z 01/15Z 01/16Z 01/17Z 01/18Z 01/19Z 01/20Z 01/21Z 01/22Z 01/23Z
Temp26 27 28 28 30 33 33 35 37 38 38 38 37
Dewpt20 21 19 18 18 19 17 15 12 10 8 8 9
Altim30.23 30.26 30.27 30.27 30.29 30.28 30.27 30.24 30.22 30.21 30.21 30.23 30.24
VIS7 10 10 10 10 10 10 10 10 10 10 10 10
CIG28 15 50 50 50 49 -- -- -- -- -- -- --
CoverOVCOVCOVCOVCBKNBKNSCTSCTSCTFEWFEWFEWFEW
FltCatMVFRMVFRVFRVFRVFRVFRVFRVFRVFRVFRVFRVFRVFR
WX-SN------------------------
WDir30103040300300300270310260270290
WSpd7 7 5 6 5 4 6 5 7 8 11 8 10
WGst-- -- -- -- -- -- -- -- -- -- -- -- --
Raw hourly METARs
KLGA 011051Z 03007KT 7SM -SN SCT010 BKN028 OVC100 M03/M07 A3023 RMK AO2 SLP235 P0001 T10331067
KLGA 011151Z 01007KT 10SM BKN015 BKN065 OVC100 M03/M06 A3026 RMK AO2 SNE32 SLP246 931002 P0000 60002 70005 T10281061 11006 21033 53013
KLGA 011251Z 03005KT 10SM SCT015 BKN050 OVC100 M02/M07 A3027 RMK AO2 SLP248 T10221072
KLGA 011351Z 04006KT 10SM SCT015 BKN050 OVC100 M02/M08 A3027 RMK AO2 SLP250 T10221078
KLGA 011451Z 03005KT 10SM FEW015 BKN050 BKN110 M01/M08 A3029 RMK AO2 SLP255 T10111078 53009
KLGA 011551Z VRB04KT 10SM BKN049 BKN110 01/M07 A3028 RMK AO2 SLP254 T00061072
KLGA 011651Z 30006KT 10SM FEW033 SCT050 01/M08 A3027 RMK AO2 SLP250 T00061083
KLGA 011751Z 30005KT 10SM FEW043 SCT130 02/M09 A3024 RMK AO2 SLP240 T00171094 10017 21028 58015
KLGA 011851Z 27007KT 10SM FEW043 SCT250 03/M11 A3022 RMK AO2 SLP231 T00281111
KLGA 011951Z 31008KT 10SM FEW045 FEW250 03/M12 A3021 RMK AO2 SLP228 T00331122
KLGA 012051Z 26011KT 10SM FEW045 FEW250 03/M13 A3021 RMK AO2 SLP231 T00331133 55009
KLGA 012151Z 27008KT 10SM FEW250 03/M13 A3023 RMK AO2 SLP234 T00331133
KLGA 012251Z 29010KT 10SM FEW250 03/M13 A3024 RMK AO2 SLP239 T00281128

KSLC - Salt Lake City Intl, UT, US

Updated at: 2300 UTC 01 Feb 2023
Potential Impact None Slight Moderate High
Time 01/11Z 01/12Z 01/13Z 01/14Z 01/15Z 01/16Z 01/17Z 01/18Z 01/19Z 01/20Z 01/21Z 01/22Z 01/23Z
Temp19 17 17 18 19 20 23 28 28 29 31 31 30
Dewpt11 11 11 11 12 12 13 12 14 15 14 16 15
Altim30.36 30.37 30.36 30.35 30.37 30.38 30.39 30.39 30.40 30.37 30.35 30.34 30.33
VIS10 9 8 9 7 8 7 9 10 9 9 10 10
CIG-- -- -- -- -- -- -- -- -- -- -- -- --
CoverFEWFEWFEWFEWFEWFEWFEWFEWFEWFEWFEWFEWFEW
FltCatVFRVFRVFRVFRVFRVFRVFRVFRVFRVFRVFRVFRVFR
WX--------------------------
WDir36036000014000100360310300
WSpd5 5 0 0 0 4 0 0 9 0 3 7 7
WGst-- -- -- -- -- -- -- -- -- -- -- -- --
Raw hourly METARs
KSLC 011054Z 36005KT 10SM FEW075 M07/M12 A3036 RMK AO2 SLP317 T10721117
KSLC 011154Z 36005KT 9SM FEW070 M08/M12 A3037 RMK AO2 SLP323 T10831117 11061 21083 53002
KSLC 011254Z 00000KT 8SM FEW065 M08/M12 A3036 RMK AO2 SLP321 T10831117
KSLC 011354Z 00000KT 9SM FEW065 M08/M12 A3035 RMK AO2 SLP320 T10781117
KSLC 011454Z 00000KT 7SM FEW060 FEW200 M07/M11 A3037 RMK AO2 SLP324 T10721111 55000
KSLC 011554Z 14004KT 8SM FEW060 M07/M11 A3038 RMK AO2 SLP326 T10671111
KSLC 011654Z 00000KT 7SM FEW065 FEW200 M05/M11 A3039 RMK AO2 SLP327 T10501106
KSLC 011754Z 00000KT 9SM FEW090 M02/M11 A3039 RMK AO2 SLP323 T10221111 11022 21083 51007
KSLC 011854Z 01009KT 10SM FEW085 M02/M10 A3040 RMK AO2 SLP324 ACSL DSNT SE T10221100
KSLC 011954Z 00000KT 9SM FEW085 M02/M09 A3037 RMK AO2 SLP314 T10171094
KSLC 012054Z 36003KT 9SM FEW085 M01/M10 A3035 RMK AO2 SLP303 T10061100 58014
KSLC 012154Z 31007KT 10SM FEW090 M01/M09 A3034 RMK AO2 SLP299 T10061089
KSLC 012254Z 30007KT 10SM FEW090 M01/M09 A3033 RMK AO2 SLP300 T10111094

KEWR - Newark Intl, NJ, US

Updated at: 2300 UTC 01 Feb 2023
Potential Impact None Slight Moderate High
Time 01/11Z 01/12Z 01/13Z 01/14Z 01/15Z 01/16Z 01/17Z 01/18Z 01/19Z 01/20Z 01/21Z 01/22Z 01/23Z
Temp27 28 28 29 31 33 36 38 39 40 40 38 37
Dewpt21 22 21 20 20 19 18 16 11 11 10 11 10
Altim30.23 30.26 30.27 30.28 30.29 30.29 30.28 30.25 30.22 30.21 30.22 30.23 30.25
VIS9 10 10 10 10 10 10 10 10 10 10 10 10
CIG65 16 17 44 19 -- -- -- -- -- -- -- --
CoverOVCOVCBKNBKNBKNSCTFEWFEWFEWFEWFEWFEWFEW
FltCatVFRMVFRMVFRVFRMVFRVFRVFRVFRVFRVFRVFRVFRVFR
WX-SN------------------------
WDir1010103603603402600300280320280290
WSpd8 9 9 8 6 4 7 0 8 10 11 7 7
WGst-- -- -- -- -- -- -- -- -- 16 -- -- --
Raw hourly METARs
KEWR 011051Z 01008KT 9SM -SN FEW033 BKN065 OVC100 M03/M06 A3023 RMK AO2 SLP236 P0000 T10281061
KEWR 011151Z 01009KT 10SM BKN016 BKN050 OVC100 M02/M06 A3026 RMK AO2 SNE07 SLP247 P0001 60002 70005 T10221056 11006 21028 53011
KEWR 011251Z 01009KT 10SM BKN017 BKN045 M02/M06 A3027 RMK AO2 SLP250 T10221061
KEWR 011351Z 36008KT 10SM SCT015 BKN044 M02/M07 A3028 RMK AO2 SLP252 T10171067
KEWR 011451Z 36006KT 10SM BKN019 BKN046 M01/M07 A3029 RMK AO2 SLP257 T10061067 53010
KEWR 011551Z 34004KT 10SM FEW020 SCT048 01/M07 A3029 RMK AO2 SLP257 T00061072
KEWR 011651Z 26007KT 10SM FEW025 FEW045 FEW250 02/M08 A3028 RMK AO2 SLP252 T00221078
KEWR 011751Z 00000KT 10SM FEW048 FEW250 03/M09 A3025 RMK AO2 SLP242 T00331089 10033 21022 58015
KEWR 011857Z 30008KT 250V340 10SM FEW046 FEW250 04/M12 A3022 RMK AO2 T00391117
KEWR 011951Z 28010G16KT 10SM FEW046 FEW250 04/M12 A3021 RMK AO2 SLP229 T00441117
KEWR 012051Z 32011KT 10SM FEW250 04/M12 A3022 RMK AO2 SLP233 T00441122 55009
KEWR 012151Z 28007KT 10SM FEW250 03/M12 A3023 RMK AO2 SLP236 T00331117
KEWR 012251Z 29007KT 10SM FEW250 03/M12 A3025 RMK AO2 SLP241 T00281122

KJFK - New York/Kennedy Int, NY, US

Updated at: 2300 UTC 01 Feb 2023
Potential Impact None Slight Moderate High
Time 01/11Z 01/12Z 01/13Z 01/14Z 01/15Z 01/16Z 01/17Z 01/18Z 01/19Z 01/20Z 01/21Z 01/22Z 01/23Z
Temp26 27 27 29 29 31 33 36 37 36 36 37 35
Dewpt24 23 24 22 20 23 21 21 19 21 20 12 12
Altim30.24 30.27 30.27 30.28 30.30 30.29 30.28 30.25 30.23 30.22 30.23 30.24 30.25
VIS4 10 10 10 10 10 10 10 10 10 10 10 10
CIG31 15 13 47 47 47 -- 50 -- -- -- -- --
CoverOVCOVCBKNBKNBKNBKNSCTBKNSCTFEWFEWFEWFEW
FltCatMVFRMVFRMVFRVFRVFRVFRVFRVFRVFRVFRVFRVFRVFR
WX-SN BR------------------------
WDir201030201020340260250240220270290
WSpd8 8 10 9 7 6 4 9 9 8 9 11 8
WGst-- -- -- -- -- -- -- -- -- 16 -- -- --
Raw hourly METARs
KJFK 011051Z 02008KT 4SM -SN BR FEW011 OVC031 M03/M04 A3024 RMK AO2 SLP238 P0001 T10331044
KJFK 011151Z 01008KT 10SM BKN015 BKN036 OVC100 M03/M05 A3027 RMK AO2 SNE30 SLP249 CIG 012V018 P0001 60002 70004 T10281050 11006 21033 53016
KJFK 011251Z 03010KT 10SM BKN013 BKN055 BKN110 M03/M04 A3027 RMK AO2 SLP251 T10281044
KJFK 011351Z 02009KT 10SM SCT015 BKN047 BKN110 M02/M06 A3028 RMK AO2 SLP252 T10171056
KJFK 011451Z 01007KT 10SM SCT017 BKN047 BKN110 M02/M07 A3030 RMK AO2 SLP259 T10171067 53010
KJFK 011551Z 02006KT 10SM FEW022 BKN047 M01/M05 A3029 RMK AO2 SLP258 T10061050
KJFK 011651Z 34004KT 10SM SCT048 SCT120 01/M06 A3028 RMK AO2 SLP254 T00061061
KJFK 011751Z 26009KT 10SM SCT034 BKN050 BKN120 BKN250 02/M06 A3025 RMK AO2 SLP244 T00221061 10022 21028 58014
KJFK 011851Z 25009KT 10SM SCT042 SCT120 SCT250 03/M07 A3023 RMK AO2 SLP236 T00281072
KJFK 011951Z 24008G16KT 10SM FEW042 FEW250 02/M06 A3022 RMK AO2 SLP232 T00221061
KJFK 012051Z 22009KT 10SM FEW042 FEW250 02/M07 A3023 RMK AO2 SLP235 T00221067 55009
KJFK 012151Z 27011KT 10SM FEW042 FEW250 03/M11 A3024 RMK AO2 SLP238 T00281111
KJFK 012251Z 29008KT 10SM FEW250 02/M11 A3025 RMK AO2 SLP243 T00171111

KPIT - Pittsburgh Intl, PA, US

Updated at: 2300 UTC 01 Feb 2023
Potential Impact None Slight Moderate High
Time 01/11Z 01/12Z 01/13Z 01/14Z 01/15Z 01/16Z 01/17Z 01/18Z 01/19Z 01/20Z 01/21Z 01/22Z 01/23Z
Temp14 13 12 13 17 19 20 22 25 24 25 26 24
Dewpt8 7 7 7 8 7 8 6 7 7 7 7 8
Altim30.28 30.30 30.32 30.34 30.36 30.36 30.35 30.32 30.30 30.29 30.27 30.27 30.28
VIS10 10 10 10 10 10 10 10 10 10 10 10 10
CIG220 250 250 250 250 250 -- 250 250 -- -- -- --
CoverBKNBKNBKNBKNBKNBKNSCTBKNBKNFEWFEWFEWFEW
FltCatVFRVFRVFRVFRVFRVFRVFRVFRVFRVFRVFRVFRVFR
WX--------------------------
WDir3202802502602802900310190240190230220
WSpd5 4 3 4 6 7 0 3 7 9 5 7 4
WGst-- -- -- -- -- -- -- -- -- -- -- -- --
Raw hourly METARs
KPIT 011051Z 32005KT 10SM SCT016 SCT110 BKN220 M10/M13 A3028 RMK AO2 SLP281 T11001133
KPIT 011151Z 28004KT 10SM SCT020 SCT110 BKN250 M11/M14 A3030 RMK AO2 SLP288 T11061139 11061 21106 53012
KPIT 011251Z 25003KT 10SM FEW020 SCT110 BKN250 M11/M14 A3032 RMK AO2 SLP297 T11111139
KPIT 011351Z 26004KT 10SM FEW020 FEW110 BKN250 M11/M14 A3034 RMK AO2 SLP302 T11061139
KPIT 011451Z 28006KT 10SM FEW020 BKN250 M08/M13 A3036 RMK AO2 SLP309 T10831133 51021
KPIT 011551Z 29007KT 10SM FEW025 BKN250 M07/M14 A3036 RMK AO2 SLP308 T10721139
KPIT 011651Z 00000KT 10SM FEW030 SCT120 SCT250 M07/M13 A3035 RMK AO2 SLP306 T10671133
KPIT 011751Z 31003KT 10SM FEW120 BKN250 M06/M14 A3032 RMK AO2 SLP293 T10561144 11056 21111 58014
KPIT 011851Z 19007KT 10SM BKN250 M04/M14 A3030 RMK AO2 SLP285 T10391139
KPIT 011951Z 24009KT 10SM FEW250 M04/M14 A3029 RMK AO2 SLP282 T10441139
KPIT 012051Z 19005KT 10SM FEW250 M04/M14 A3027 RMK AO2 SLP278 T10391139 56015
KPIT 012151Z 23007KT 10SM FEW250 M03/M14 A3027 RMK AO2 SLP277 T10331139
KPIT 012251Z 22004KT 10SM FEW250 M04/M13 A3028 RMK AO2 SLP281 T10441133

KPHL - Philadelphia Intl, PA, US

Updated at: 2300 UTC 01 Feb 2023
Potential Impact None Slight Moderate High
Time 01/11Z 01/12Z 01/13Z 01/14Z 01/15Z 01/16Z 01/17Z 01/18Z 01/19Z 01/20Z 01/21Z 01/22Z 01/23Z
Temp31 31 32 32 33 35 35 37 37 38 39 38 36
Dewpt28 27 26 25 23 23 21 16 10 11 11 9 12
Altim30.22 30.25 30.27 30.28 30.30 30.31 30.30 30.28 30.26 30.25 30.27 30.27 30.28
VIS7 10 10 10 10 10 10 10 10 10 10 10 10
CIG85 13 32 38 -- 33 250 -- -- -- -- -- --
CoverOVCOVCOVCBKNSCTBKNBKNSCTSCTSCTSCTFEWFEW
FltCatVFRMVFRVFRVFRVFRVFRVFRVFRVFRVFRVFRVFRVFR
WX-SN------------------------
WDir30402030350360320320280310310300290
WSpd5 4 6 5 5 8 8 6 8 9 10 7 7
WGst-- -- -- -- -- -- -- -- -- 17 -- -- --
Raw hourly METARs
KPHL 011103Z 03005KT 7SM -SN FEW007 FEW050 OVC085 M01/M02 A3022 RMK AO2 P0000 T10061022 $
KPHL 011159Z 04004KT 10SM FEW009 BKN013 OVC090 M01/M03 A3025 RMK AO2 SNE59 P0000 T10061028 $
KPHL 011254Z 02006KT 10SM FEW019 OVC032 00/M03 A3027 RMK AO2 SNE1159 SLP248 P0000 T00001033 $
KPHL 011354Z 03005KT 10SM FEW018 BKN038 BKN130 00/M04 A3028 RMK AO2 SLP255 T00001039
KPHL 011454Z 35005KT 10SM SCT021 SCT042 01/M05 A3030 RMK AO2 SLP260 60000 T00061050 51019
KPHL 011554Z 36008KT 10SM BKN033 BKN250 02/M05 A3031 RMK AO2 SLP264 T00171050
KPHL 011654Z 32008KT 10SM SCT034 BKN250 02/M06 A3030 RMK AO2 SLP261 T00171061
KPHL 011754Z 32006KT 10SM FEW044 SCT250 03/M09 A3028 RMK AO2 SLP252 60000 T00281089 10028 21006 58008
KPHL 011854Z 28008KT 10SM SCT250 03/M12 A3026 RMK AO2 SLP246 T00281122
KPHL 011954Z 31009G17KT 10SM SCT250 03/M12 A3025 RMK AO2 SLP242 T00331117
KPHL 012054Z 31010KT 10SM SCT250 04/M12 A3027 RMK AO2 SLP248 T00391117 55003
KPHL 012154Z 30007KT 10SM FEW250 03/M13 A3027 RMK AO2 SLP250 T00331128
KPHL 012254Z 29007KT 10SM FEW250 02/M11 A3028 RMK AO2 SLP253 T00221111

KDEN - Denver Intl, CO, US

Updated at: 2300 UTC 01 Feb 2023
Potential Impact None Slight Moderate High
Time 01/11Z 01/12Z 01/13Z 01/14Z 01/15Z 01/16Z 01/17Z 01/18Z 01/19Z 01/20Z 01/21Z 01/22Z 01/23Z
Temp12 18 20 20 21 23 28 31 41 34 33 32 29
Dewpt-2 -1 1 2 3 6 9 14 12 18 20 19 18
Altim30.03 30.04 30.06 30.06 30.08 30.10 30.10 30.10 30.08 30.05 30.04 30.05 30.06
VIS10 10 10 10 10 10 10 10 10 10 10 10 10
CIG-- -- -- -- -- -- -- -- -- -- -- -- --
CoverFEWFEWCLRFEWFEWFEWFEWFEWFEWFEWFEWFEWFEW
FltCatVFRVFRVFRVFRVFRVFRVFRVFRVFRVFRVFRVFRVFR
WX--------------------------
WDir240210210220230220210210090120140150
WSpd8 10 13 11 9 10 11 8 3 4 8 9 10
WGst-- -- -- -- -- -- -- -- -- -- -- -- --
Raw hourly METARs
KDEN 011053Z 24008KT 10SM FEW120 M11/M19 A3003 RMK AO2 SLP230 T11111189
KDEN 011153Z 21010KT 10SM FEW120 M08/M18 A3004 RMK AO2 SLP229 T10781183 11072 21139 55001
KDEN 011253Z 21013KT 10SM CLR M07/M17 A3006 RMK AO2 SLP237 T10671172
KDEN 011353Z 22011KT 10SM FEW080 FEW120 M07/M17 A3006 RMK AO2 SLP234 T10671167
KDEN 011453Z 23009KT 10SM FEW080 FEW120 M06/M16 A3008 RMK AO2 SLP241 T10611161 53013
KDEN 011553Z 22010KT 10SM FEW080 FEW120 M05/M14 A3010 RMK AO2 SLP249 T10501144
KDEN 011653Z 21011KT 10SM FEW090 FEW120 M02/M13 A3010 RMK AO2 SLP242 T10221128
KDEN 011753Z 21008KT 10SM FEW090 FEW120 M01/M10 A3010 RMK AO2 SLP239 T10061100 10006 21089 51005
KDEN 011853Z VRB03KT 10SM FEW090 FEW130 05/M11 A3008 RMK AO2 SLP215 T00501111
KDEN 011953Z 09004KT 10SM FEW090 FEW120 01/M08 A3005 RMK AO2 SLP216 T00111078
KDEN 012053Z 12008KT 10SM FEW090 FEW120 01/M07 A3004 RMK AO2 SLP212 T00061067 56018
KDEN 012153Z 14009KT 10SM FEW100 FEW150 00/M07 A3005 RMK AO2 SLP214 T00001072
KDEN 012253Z 15010KT 10SM FEW100 FEW150 M02/M08 A3006 RMK AO2 SLP221 T10171078

KBWI - Baltimore-Washington, MD, US

Updated at: 2300 UTC 01 Feb 2023
Potential Impact None Slight Moderate High
Time 01/11Z 01/12Z 01/13Z 01/14Z 01/15Z 01/16Z 01/17Z 01/18Z 01/19Z 01/20Z 01/21Z 01/22Z 01/23Z
Temp33 33 34 33 35 37 38 39 39 39 39 37 34
Dewpt28 27 17 16 15 16 12 10 9 12 12 12 9
Altim30.21 30.23 30.27 30.28 30.31 30.33 30.31 30.29 30.28 30.27 30.27 30.28 30.29
VIS10 10 10 10 10 10 10 10 10 10 10 10 10
CIG95 85 95 130 200 200 -- 250 200 200 250 250 250
CoverOVCBKNBKNBKNBKNBKNSCTBKNBKNBKNBKNBKNBKN
FltCatVFRVFRVFRVFRVFRVFRVFRVFRVFRVFRVFRVFRVFR
WX--------------------------
WDir030033036036003002903100290290300
WSpd0 4 6 8 7 6 9 5 7 5 6 8 4
WGst-- -- -- 18 -- -- -- -- -- -- -- -- --
Raw hourly METARs
KBWI 011054Z 00000KT 10SM FEW065 OVC095 01/M02 A3021 RMK AO2 SNB14E34 SLP231 P0000 T00061022
KBWI 011154Z 30004KT 10SM BKN085 01/M03 A3023 RMK AO2 SLP239 60001 70011 T00061028 10022 20000 53008
KBWI 011254Z 33006KT 10SM BKN095 BKN200 01/M08 A3027 RMK AO2 SLP250 T00111083
KBWI 011354Z 36008G18KT 10SM SCT095 BKN130 BKN200 01/M09 A3028 RMK AO2 SLP255 T00061089
KBWI 011454Z 36007KT 10SM SCT110 SCT140 BKN200 02/M09 A3031 RMK AO2 SLP266 T00171094 51027
KBWI 011554Z VRB06KT 10SM FEW110 FEW140 BKN200 03/M09 A3033 RMK AO2 SLP272 T00281089
KBWI 011654Z 30009KT 10SM FEW110 SCT200 03/M11 A3031 RMK AO2 SLP264 T00331111
KBWI 011754Z 29005KT 10SM SCT200 BKN250 04/M12 A3029 RMK AO2 SLP259 T00391122 10044 20006 58006
KBWI 011854Z 31007KT 10SM BKN200 BKN250 04/M13 A3028 RMK AO2 SLP255 T00391128
KBWI 011954Z VRB05KT 10SM BKN200 BKN250 04/M11 A3027 RMK AO2 SLP250 T00391111
KBWI 012054Z 29006KT 10SM SCT200 BKN250 04/M11 A3027 RMK AO2 SLP253 T00391111 55007
KBWI 012154Z 29008KT 10SM SCT200 BKN250 03/M11 A3028 RMK AO2 SLP255 T00281111
KBWI 012254Z 30004KT 10SM FEW160 SCT200 BKN250 01/M13 A3029 RMK AO2 SLP259 T00111128

KCVG - Cincinnati Intl, KY, US

Updated at: 2300 UTC 01 Feb 2023
Potential Impact None Slight Moderate High
Time 01/11Z 01/12Z 01/13Z 01/14Z 01/15Z 01/16Z 01/17Z 01/18Z 01/19Z 01/20Z 01/21Z 01/22Z 01/23Z
Temp18 17 16 19 22 23 25 27 28 29 30 30 29
Dewpt13 13 12 12 12 13 10 10 10 12 8 8 8
Altim30.34 30.36 30.39 30.40 30.39 30.40 30.39 30.38 30.34 30.33 30.31 30.31 30.31
VIS10 10 10 10 10 10 10 10 10 10 10 10 10
CIG210 -- -- 250 230 250 250 200 180 -- -- 250 220
CoverBKNSCTSCTBKNBKNBKNBKNBKNOVCFEWSCTBKNOVC
FltCatVFRVFRVFRVFRVFRVFRVFRVFRVFRVFRVFRVFRVFR
WX--------------------------
WDir36036036010609003100320000
WSpd8 6 5 9 4 3 0 3 0 3 0 0 0
WGst-- -- -- -- -- -- -- -- -- -- -- -- --
Raw hourly METARs
KCVG 011052Z 36008KT 10SM BKN210 M08/M11 A3034 RMK AO2 SLP286 T10781106
KCVG 011152Z 36006KT 10SM SCT250 M08/M11 A3036 RMK AO2 SLP293 T10831106 11056 21083 51014
KCVG 011252Z 36005KT 10SM SCT250 M09/M11 A3039 RMK AO2 SLP304 T10891111
KCVG 011352Z 01009KT 10SM FEW230 BKN250 M07/M11 A3040 RMK AO2 SLP304 T10721111
KCVG 011452Z 06004KT 10SM FEW140 SCT190 BKN230 M06/M11 A3039 RMK AO2 SLP302 T10561111 50009
KCVG 011552Z 09003KT 10SM FEW140 SCT200 BKN250 M05/M11 A3040 RMK AO2 SLP304 T10501106
KCVG 011652Z 00000KT 10SM FEW120 SCT200 BKN250 M04/M12 A3039 RMK AO2 SLP300 T10391122
KCVG 011752Z 31003KT 10SM FEW120 BKN200 BKN250 M03/M12 A3038 RMK AO2 SLP296 T10281122 11028 21089 58005
KCVG 011852Z 00000KT 10SM SCT120 BKN180 OVC230 M02/M12 A3034 RMK AO2 SLP285 BINOVC T10221122
KCVG 011952Z 32003KT 10SM FEW200 FEW250 M02/M11 A3033 RMK AO2 SLP278 T10171111
KCVG 012052Z 00000KT 10SM SCT250 M01/M13 A3031 RMK AO2 SLP274 T10111133 56021
KCVG 012152Z 00000KT 10SM FEW210 BKN250 M01/M13 A3031 RMK AO2 SLP274 T10111133
KCVG 012252Z 00000KT 10SM BKN220 OVC250 M02/M13 A3031 RMK AO2 SLP272 T10171133

KIAD - Washington/Dulles In, VA, US

Updated at: 2300 UTC 01 Feb 2023
Potential Impact None Slight Moderate High
Time 01/11Z 01/12Z 01/13Z 01/14Z 01/15Z 01/16Z 01/17Z 01/18Z 01/19Z 01/20Z 01/21Z 01/22Z 01/23Z
Temp33 33 32 31 33 34 35 36 37 39 38 37 35
Dewpt28 27 23 19 17 18 18 17 16 16 15 14 13
Altim30.22 30.24 30.26 30.30 30.34 30.34 30.32 30.31 30.29 30.29 30.28 30.30 30.29
VIS5 6 10 10 10 10 10 10 10 10 10 10 10
CIG40 80 90 110 250 -- -- -- 250 250 250 -- --
CoverOVCOVCBKNBKNBKNSCTSCTSCTBKNBKNBKNFEWSCT
FltCatMVFRVFRVFRVFRVFRVFRVFRVFRVFRVFRVFRVFRVFR
WXBRBR----------------------
WDir360350360350340330330350360340320300360
WSpd7 8 11 10 12 11 11 9 11 7 6 3 3
WGst-- -- 17 -- -- -- 18 -- 16 16 -- -- --
Raw hourly METARs
KIAD 011054Z 36007KT 5SM BR BKN040 OVC070 01/M02 A3022 RMK AO2 T00061022
KIAD 011152Z 35008KT 6SM BR FEW017 OVC080 01/M03 A3024 RMK AO2 SLP244 60006 70013 I6000 T00061028 10017 20000 53014
KIAD 011252Z 36011G17KT 10SM FEW018 BKN090 00/M05 A3026 RMK AO2 SLP250 T00001050
KIAD 011352Z 35010KT 10SM BKN110 BKN200 M01/M07 A3030 RMK AO2 PRESRR SLP264 T10061072
KIAD 011452Z 34012KT 10SM FEW110 BKN250 01/M08 A3034 RMK AO2 SLP275 T00061083 53030
KIAD 011552Z 33011KT 10SM FEW120 SCT250 01/M08 A3034 RMK AO2 SLP276 T00111078
KIAD 011652Z 33011G18KT 10SM SCT250 02/M08 A3032 RMK AO2 SLP270 T00171078
KIAD 011752Z 35009KT 10SM SCT250 02/M08 A3031 RMK AO2 SLP266 T00221083 10028 21006 58008
KIAD 011852Z 36011G16KT 10SM FEW150 BKN250 03/M09 A3029 RMK AO2 SLP259 T00281089
KIAD 011952Z 34007G16KT 10SM FEW150 BKN250 04/M09 A3029 RMK AO2 SLP259 T00391089
KIAD 012052Z 32006KT 10SM FEW150 BKN250 03/M09 A3028 RMK AO2 SLP256 T00331094 56010
KIAD 012152Z 30003KT 10SM FEW150 FEW250 03/M10 A3030 RMK AO2 SLP261 T00281100
KIAD 012252Z 36003KT 10SM FEW120 SCT250 02/M11 A3029 RMK AO2 SLP260 T00171106

KDCA - Washington/National, VA, US

Updated at: 2300 UTC 01 Feb 2023
Potential Impact None Slight Moderate High
Time 01/11Z 01/12Z 01/13Z 01/14Z 01/15Z 01/16Z 01/17Z 01/18Z 01/19Z 01/20Z 01/21Z 01/22Z 01/23Z
Temp34 34 34 34 36 37 39 39 40 41 39 37 36
Dewpt30 27 27 21 21 19 20 17 17 17 13 14 13
Altim30.24 30.27 30.29 30.31 30.34 30.35 30.34 30.32 30.31 30.30 30.30 30.31 30.32
VIS9 10 9 10 10 10 10 10 10 10 10 10 10
CIG70 95 90 110 110 -- -- 240 250 250 250 -- --
CoverOVCOVCOVCBKNBKNSCTSCTBKNBKNBKNBKNSCTSCT
FltCatVFRVFRVFRVFRVFRVFRVFRVFRVFRVFRVFRVFRVFR
WX-SN------------------------
WDir10340350340340340360340330320330340340
WSpd10 8 12 14 10 12 11 10 10 4 11 10 7
WGst-- -- -- -- -- -- -- -- -- -- -- -- --
Raw hourly METARs
KDCA 011052Z 01010KT 9SM -SN FEW017 BKN070 OVC085 01/M01 A3024 RMK AO2 SLP238 P0000 T00111011
KDCA 011152Z 34008KT 10SM FEW075 OVC095 01/M03 A3027 RMK AO2 SNE17 SLP248 P0000 60004 70021 T00111028 10028 20006 53014
KDCA 011252Z 35012KT 9SM FEW025 OVC090 01/M03 A3029 RMK AO2 SLP257 T00111028
KDCA 011352Z 34014KT 10SM FEW025 SCT090 BKN110 BKN200 01/M06 A3031 RMK AO2 SLP263 VIRGA S T00111061
KDCA 011452Z 34010KT 10SM SCT090 BKN110 BKN200 02/M06 A3034 RMK AO2 SLP274 T00221061 53026
KDCA 011552Z 34012KT 10SM FEW120 SCT200 03/M07 A3035 RMK AO2 SLP277 T00281072
KDCA 011652Z 36011KT 10SM FEW100 SCT200 04/M07 A3034 RMK AO2 SLP272 T00391067
KDCA 011752Z 34010KT 10SM BKN240 04/M08 A3032 RMK AO2 SLP265 T00391083 10044 20006 58008
KDCA 011852Z 33010KT 10SM BKN250 04/M08 A3031 RMK AO2 SLP262 T00441083
KDCA 011952Z 32004KT 10SM BKN250 05/M08 A3030 RMK AO2 SLP258 T00501083
KDCA 012052Z 33011KT 10SM BKN250 04/M11 A3030 RMK AO2 SLP259 T00391106 55006
KDCA 012152Z 34010KT 10SM SCT250 03/M10 A3031 RMK AO2 SLP264 T00281100
KDCA 012252Z 34007KT 10SM SCT250 02/M11 A3032 RMK AO2 SLP267 T00221106

KSTL - St Louis/Lambert Int, MO, US

Updated at: 2300 UTC 01 Feb 2023
Potential Impact None Slight Moderate High
Time 01/11Z 01/12Z 01/13Z 01/14Z 01/15Z 01/16Z 01/17Z 01/18Z 01/19Z 01/20Z 01/21Z 01/22Z 01/23Z
Temp16 17 18 19 22 25 27 29 32 32 32 34 33
Dewpt8 10 10 11 10 6 8 8 9 9 7 9 9
Altim30.42 30.42 30.42 30.43 30.44 30.45 30.43 30.41 30.38 30.33 30.33 30.32 30.32
VIS10 10 10 10 10 10 10 10 10 10 10 10 10
CIG250 250 250 250 250 250 250 -- 250 250 250 230 250
CoverBKNBKNBKNBKNBKNBKNBKNSCTBKNBKNBKNBKNBKN
FltCatVFRVFRVFRVFRVFRVFRVFRVFRVFRVFRVFRVFRVFR
WX--------------------------
WDir00001700130150190000170
WSpd0 0 0 0 3 0 4 3 4 3 0 0 5
WGst-- -- -- -- -- -- -- -- -- -- -- -- --
Raw hourly METARs
KSTL 011051Z 00000KT 10SM BKN250 M09/M13 A3042 RMK AO2 SLP318 T10891133 $
KSTL 011151Z 00000KT 10SM BKN250 M08/M12 A3042 RMK AO2 SLP319 T10831122 11067 21094 53002 $
KSTL 011251Z 00000KT 10SM BKN250 M08/M12 A3042 RMK AO2 SLP318 T10781122 $
KSTL 011351Z 00000KT 10SM FEW200 BKN250 M07/M12 A3043 RMK AO2 SLP320 T10721117 $
KSTL 011451Z 17003KT 10SM FEW200 BKN250 M06/M12 A3044 RMK AO2 SLP325 T10561122 53007 $
KSTL 011551Z 00000KT 10SM FEW200 BKN250 M04/M14 A3045 RMK AO2 SLP328 T10391144 $
KSTL 011651Z 13004KT 10SM SCT200 BKN250 M03/M13 A3043 RMK AO2 SLP321 T10281133 $
KSTL 011751Z 15003KT 10SM FEW200 SCT250 M02/M13 A3041 RMK AO2 SLP315 T10171133 11011 21083 58008 $
KSTL 011851Z 19004KT 10SM BKN250 00/M13 A3038 RMK AO2 SLP303 T00001128 $
KSTL 011951Z VRB03KT 10SM FEW200 BKN250 00/M13 A3033 RMK AO2 SLP286 T00001128 $
KSTL 012051Z 00000KT 10SM SCT150 SCT200 BKN250 00/M14 A3033 RMK AO2 SLP285 T00001139 56028 $
KSTL 012151Z 00000KT 10SM SCT150 BKN230 01/M13 A3032 RMK AO2 SLP281 T00111128 $
KSTL 012251Z 17005KT 10SM FEW150 BKN250 01/M13 A3032 RMK AO2 SLP282 T00061128 $

KSFO - San Francisco Intl, CA, US

Updated at: 2300 UTC 01 Feb 2023
Potential Impact None Slight Moderate High
Time 01/11Z 01/12Z 01/13Z 01/14Z 01/15Z 01/16Z 01/17Z 01/18Z 01/19Z 01/20Z 01/21Z 01/22Z 01/23Z
Temp42 40 40 42 42 42 46 49 50 52 54 55 56
Dewpt29 30 32 35 35 38 37 35 37 36 40 41 43
Altim30.19 30.18 30.18 30.19 30.20 30.21 30.22 30.23 30.22 30.21 30.19 30.18 30.18
VIS10 10 10 10 10 10 10 10 10 10 10 10 10
CIG-- -- -- -- -- 180 180 180 180 200 200 200 200
CoverCLRCLRCLRFEWSCTBKNBKNBKNBKNBKNBKNBKNBKN
FltCatVFRVFRVFRVFRVFRVFRVFRVFRVFRVFRVFRVFRVFR
WX--------------------------
WDir00021001900802020202030
WSpd0 0 0 4 0 4 0 3 5 5 6 6 3
WGst-- -- -- -- -- -- -- -- -- -- -- -- --
Raw hourly METARs
KSFO 011056Z 00000KT 10SM CLR 06/M02 A3019 RMK AO2 SLP221 T00561017
KSFO 011156Z 00000KT 10SM CLR 04/M01 A3018 RMK AO2 SLP220 T00441011 10089 20044 58001
KSFO 011256Z 00000KT 10SM CLR 04/00 A3018 RMK AO2 SLP220 T00440000
KSFO 011356Z 21004KT 10SM FEW150 06/02 A3019 RMK AO2 SLP223 T00560017
KSFO 011456Z 00000KT 10SM SCT180 06/02 A3020 RMK AO2 SLP227 T00560017 53007
KSFO 011556Z 19004KT 10SM BKN180 06/03 A3021 RMK AO2 SLP230 T00560033
KSFO 011656Z 00000KT 10SM BKN180 08/03 A3022 RMK AO2 SLP233 T00780028
KSFO 011756Z 08003KT 10SM BKN180 09/02 A3023 RMK AO2 SLP235 T00940017 10094 20039 51008
KSFO 011856Z 02005KT 10SM BKN180 10/03 A3022 RMK AO2 SLP234 T01000028
KSFO 011956Z 02005KT 10SM BKN200 11/02 A3021 RMK AO2 SLP231 T01110022
KSFO 012056Z 02006KT 10SM BKN200 12/04 A3019 RMK AO2 SLP224 T01220044 58012
KSFO 012156Z 02006KT 10SM BKN200 13/05 A3018 RMK AO2 SLP220 T01280050
KSFO 012256Z 03003KT 10SM BKN200 13/06 A3018 RMK AO2 SLP219 T01330061

KLAS - Las Vegas/Reid Intl, NV, US

Updated at: 2300 UTC 01 Feb 2023
Potential Impact None Slight Moderate High
Time 01/11Z 01/12Z 01/13Z 01/14Z 01/15Z 01/16Z 01/17Z 01/18Z 01/19Z 01/20Z 01/21Z 01/22Z 01/23Z
Temp32 31 31 31 31 35 40 43 46 47 51 53 53
Dewpt15 15 15 15 15 15 13 11 11 12 12 13 15
Altim30.25 30.25 30.25 30.26 30.26 30.28 30.29 30.29 30.28 30.25 30.23 30.22 30.21
VIS10 10 10 10 10 10 10 10 10 10 10 10 10
CIG-- -- -- -- -- -- -- -- -- -- -- -- --
CoverCLRCLRCLRCLRCLRCLRCLRFEWFEWFEWFEWFEWFEW
FltCatVFRVFRVFRVFRVFRVFRVFRVFRVFRVFRVFRVFRVFR
WX--------------------------
WDir230230210020000600160060100
WSpd3 4 5 0 4 0 0 4 0 3 4 5 4
WGst-- -- -- -- -- -- -- -- -- -- -- -- --
Raw hourly METARs
KLAS 011056Z 23003KT 10SM CLR 00/M09 A3025 RMK AO2 SLP248 T00001094
KLAS 011156Z 23004KT 10SM CLR M01/M09 A3025 RMK AO2 SLP249 T10061094 10028 21006 58002
KLAS 011256Z 21005KT 10SM CLR M01/M09 A3025 RMK AO2 SLP250 T10061094
KLAS 011356Z 00000KT 10SM CLR M01/M09 A3026 RMK AO2 SLP255 T10061094
KLAS 011456Z 20004KT 10SM CLR M01/M09 A3026 RMK AO2 SLP258 T10061094 53005
KLAS 011556Z 00000KT 10SM CLR 02/M09 A3028 RMK AO2 SLP262 T00171094
KLAS 011656Z 00000KT 10SM CLR 04/M11 A3029 RMK AO2 SLP265 T00441106
KLAS 011756Z 06004KT 10SM FEW250 06/M12 A3029 RMK AO2 SLP264 T00611117 10061 21011 51009
KLAS 011856Z 00000KT 10SM FEW250 08/M12 A3028 RMK AO2 SLP259 T00781117
KLAS 011956Z 16003KT 10SM FEW250 08/M11 A3025 RMK AO2 SLP250 T00831111
KLAS 012056Z VRB04KT 10SM FEW250 11/M11 A3023 RMK AO2 SLP243 T01061111 58019
KLAS 012156Z 06005KT 10SM FEW250 12/M11 A3022 RMK AO2 SLP236 T01171106
KLAS 012256Z 10004KT 10SM FEW250 12/M09 A3021 RMK AO2 SLP234 T01171094

KCLT - Charlotte/Douglas In, NC, US

Updated at: 2300 UTC 01 Feb 2023
Potential Impact None Slight Moderate High
Time 01/11Z 01/12Z 01/13Z 01/14Z 01/15Z 01/16Z 01/17Z 01/18Z 01/19Z 01/20Z 01/21Z 01/22Z 01/23Z
Temp59 59 58 48 46 46 46 45 46 45 45 45 45
Dewpt57 57 57 47 44 43 43 43 42 41 41 40 39
Altim30.06 30.09 30.11 30.15 30.19 30.22 30.23 30.21 30.19 30.19 30.19 30.22 30.24
VIS10 10 9 2.5 2.5 4 2.5 4 10 10 5 10 10
CIG7 8 8 2 4 5 5 5 10 9 9 10 14
CoverOVCOVCOVCOVCOVCOVCOVCOVCOVCOVCOVCOVCOVC
FltCatIFRIFRIFRLIFRLIFRIFRIFRIFRMVFRIFRIFRMVFRMVFR
WX-RA----BRBRBRBRBR----BR----
WDir230300030705040604060607070
WSpd4 3 0 13 10 13 8 9 6 8 7 8 8
WGst-- -- -- -- -- 17 -- -- -- -- -- -- --
Raw hourly METARs
KCLT 011052Z 23004KT 10SM -RA BKN007 OVC085 15/14 A3006 RMK RAE0954B26 SLP175 P0000 T01500139
KCLT 011152Z 30003KT 10SM OVC008 15/14 A3009 RMK RAE1053 CIG 005V012 SLP185 P0000 60009 70011 T01500139 10150 20144 51017
KCLT 011252Z 00000KT 9SM BKN008 OVC120 14/14 A3011 RMK SLP191 T01440139
KCLT 011352Z 03013KT 2 1/2SM BR OVC002 09/08 A3015 RMK SLP209 T00890083
KCLT 011452Z 07010KT 2 1/2SM BR BKN004 OVC008 08/07 A3019 RMK SLP220 T00780067 53033
KCLT 011552Z 05013G17KT 4SM BR BKN005 OVC012 08/06 A3022 RMK SLP233 T00780061
KCLT 011701Z 04008KT 2 1/2SM BR BKN005 OVC011 08/06 A3023 RMK T00780061
KCLT 011752Z 06009KT 4SM BR BKN005 BKN010 OVC017 07/06 A3021 RMK SLP228 T00720061 10150 20072 50008
KCLT 011852Z 04006KT 10SM BKN010 OVC019 08/06 A3019 RMK SLP223 T00780056
KCLT 011952Z 06008KT 10SM BKN009 OVC015 07/05 A3019 RMK SLP221 T00720050
KCLT 012052Z 06007KT 5SM BR BKN009 OVC017 07/05 A3019 RMK SLP222 T00720050 55006
KCLT 012152Z 07008KT 10SM OVC010 07/04 A3022 RMK CIG 009V014 SLP230 T00720044
KCLT 012252Z 07008KT 10SM FEW010 OVC014 07/04 A3024 RMK SLP238 T00720039

KMEM - Memphis Intl, TN, US

Updated at: 2300 UTC 01 Feb 2023
Potential Impact None Slight Moderate High
Time 01/11Z 01/12Z 01/13Z 01/14Z 01/15Z 01/16Z 01/17Z 01/18Z 01/19Z 01/20Z 01/21Z 01/22Z 01/23Z
Temp26 25 25 25 26 26 27 27 28 28 29 29 29
Dewpt23 23 22 22 23 23 24 24 25 26 26 26 27
Altim30.35 30.37 30.37 30.39 30.42 30.41 30.42 30.39 30.35 30.33 30.33 30.33 30.34
VIS10 10 10 10 10 10 10 10 7 10 10 7 7
CIG8 8 11 11 16 13 13 12 10 10 10 9 8
CoverOVCOVCBKNBKNBKNOVCOVCOVCOVCOVCOVCOVCOVC
FltCatIFRIFRMVFRMVFRMVFRMVFRMVFRMVFRMVFRMVFRMVFRIFRIFR
WX-----------------FZRA-FZRA-FZDZ---FZDZ
WDir201030302040103030036040350
WSpd8 7 9 10 7 11 7 9 7 0 4 4 6
WGst-- -- -- -- -- -- -- -- -- -- -- -- --
Raw hourly METARs
KMEM 011054Z 02008KT 10SM OVC008 M03/M05 A3035 RMK AO2 SLP281 T10331050 $
KMEM 011154Z 01007KT 10SM OVC008 M04/M05 A3037 RMK AO2 SLP286 70040 T10391050 11033 21039 53008 $
KMEM 011254Z 03009KT 10SM BKN011 BKN110 M04/M06 A3037 RMK AO2 PRESFR SLP288 T10391056 $
KMEM 011354Z 03010KT 10SM BKN011 BKN016 M04/M06 A3039 RMK AO2 SLP295 T10391056 $
KMEM 011454Z 02007KT 10SM SCT011 BKN016 BKN150 M03/M05 A3042 RMK AO2 SLP303 T10331050 53016 $
KMEM 011554Z 04011KT 10SM BKN013 OVC120 M03/M05 A3041 RMK AO2 SLP300 T10331050 $
KMEM 011654Z 01007KT 10SM BKN013 OVC120 M03/M04 A3042 RMK AO2 SLP304 T10281044 $
KMEM 011754Z 03009KT 10SM BKN012 OVC110 M03/M04 A3039 RMK AO2 SLP294 T10281044 11028 21039 58008 $
KMEM 011854Z 03007KT 7SM -FZRA OVC010 M02/M04 A3035 RMK AO2 FZRAB54 SLP282 P0000 I1000 T10221039 $
KMEM 011954Z 00000KT 10SM -FZRA OVC010 M02/M03 A3033 RMK AO2 CIG 007V013 SLP273 P0003 I1002 T10221033 $
KMEM 012054Z 36004KT 10SM -FZDZ BKN010 OVC100 M02/M03 A3033 RMK AO2 FZRAE36FZDZB36 CIG 008V012 SLP275 P0001 60004 I1001 I3003 T10171033 55019 $
KMEM 012154Z 04004KT 7SM OVC009 M02/M03 A3033 RMK AO2 FZDZE07 SLP274 P0000 I1000 T10171033 $
KMEM 012304Z 35006KT 7SM -FZDZ BKN008 OVC110 M02/M03 A3034 RMK AO2 FZDZB04 CIG 007V011 PRESRR P0000 I1000 T10171028 $

KLAX - Los Angeles Intl, CA, US

Updated at: 2300 UTC 01 Feb 2023
Potential Impact None Slight Moderate High
Time 01/11Z 01/12Z 01/13Z 01/14Z 01/15Z 01/16Z 01/17Z 01/18Z 01/19Z 01/20Z 01/21Z 01/22Z 01/23Z
Temp43 44 45 41 46 48 56 60 62 64 64 64 61
Dewpt34 30 28 30 25 27 30 25 23 25 27 29 36
Altim30.11 30.10 30.10 30.12 30.14 30.15 30.16 30.18 30.17 30.15 30.13 30.12 30.13
VIS10 10 10 10 10 10 10 10 10 10 10 10 10
CIG-- -- -- -- -- -- -- -- -- -- -- -- --
CoverCLRCLRCLRFEWFEWCLRCLRCLRCLRFEWFEWFEWFEW
FltCatVFRVFRVFRVFRVFRVFRVFRVFRVFRVFRVFRVFRVFR
WX--------------------------
WDir807040900000140220250250270
WSpd3 3 3 3 0 0 0 3 4 7 8 10 10
WGst-- -- -- -- -- -- -- -- -- -- -- -- --
Raw hourly METARs
KLAX 011053Z 08003KT 10SM CLR 06/01 A3011 RMK AO2 SLP195 T00610011 $
KLAX 011153Z 07003KT 10SM CLR 07/M01 A3010 RMK AO2 SLP191 T00671011 10122 20056 58004 $
KLAX 011253Z 04003KT 10SM CLR 07/M02 A3010 RMK AO2 SLP190 T00721022 $
KLAX 011353Z 09003KT 10SM FEW200 05/M01 A3012 RMK AO2 SLP198 T00501011 $
KLAX 011453Z 00000KT 10SM FEW200 08/M04 A3014 RMK AO2 SLP203 T00781039 53012 $
KLAX 011553Z 00000KT 10SM CLR 09/M03 A3015 RMK AO2 SLP207 T00891028 $
KLAX 011653Z 00000KT 10SM CLR 13/M01 A3016 RMK AO2 SLP213 T01331011 $
KLAX 011753Z VRB03KT 10SM CLR 16/M04 A3018 RMK AO2 SLP218 T01561039 10156 20050 53015 $
KLAX 011853Z 14004KT 10SM CLR 17/M05 A3017 RMK AO2 SLP216 T01671050 $
KLAX 011953Z 22007KT 10SM FEW180 18/M04 A3015 RMK AO2 SLP208 T01781039 $
KLAX 012053Z 25008KT 10SM FEW160 FEW190 18/M03 A3013 RMK AO2 SLP201 T01781028 58016 $
KLAX 012153Z 25010KT 10SM FEW140 FEW180 18/M02 A3012 RMK AO2 SLP199 T01781017 $
KLAX 012253Z 27010KT 10SM FEW250 16/02 A3013 RMK AO2 SLP203 T01610022 $

KATL - Atlanta/Hartsfield I, GA, US

Updated at: 2300 UTC 01 Feb 2023
Potential Impact None Slight Moderate High
Time 01/11Z 01/12Z 01/13Z 01/14Z 01/15Z 01/16Z 01/17Z 01/18Z 01/19Z 01/20Z 01/21Z 01/22Z 01/23Z
Temp55 52 51 51 50 50 53 55 56 57 57 57 57
Dewpt54 51 50 49 48 48 47 48 48 48 48 48 49
Altim30.14 30.17 30.19 30.21 30.24 30.26 30.24 30.21 30.19 30.17 30.16 30.18 30.19
VIS0.75 5 4 6 1.25 6 10 10 10 10 10 10 10
CIG2 4 6 5 4 4 22 48 48 200 20 19 22
CoverOVXOVCOVCOVCOVCOVCOVCOVCBKNBKNBKNOVCOVC
FltCatLIFRLIFRIFRIFRLIFRLIFRMVFRVFRVFRVFRMVFRMVFRMVFR
WX-DZ BRBR-DZ BRBRBRBR--------------
WDir320320300300340330310300290320330300290
WSpd5 10 10 10 6 8 6 6 5 6 5 6 4
WGst-- -- -- -- -- 18 -- -- -- -- -- -- --
Raw hourly METARs
KATL 011052Z 32005KT 3/4SM R09R/4000V5000FT -DZ BR VV002 13/12 A3014 RMK AO2 DZB44 SLP204 P0000 T01280122
KATL 011152Z 32010KT 5SM BR OVC004 11/11 A3017 RMK AO2 DZE31 SLP213 CIG 003V005 P0000 60000 70004 T01110106 10150 20111 52018
KATL 011252Z 30010KT 4SM -DZ BR BKN006 OVC013 11/10 A3019 RMK AO2 DZB50 SLP222 CIG 005V008 P0000 T01060100
KATL 011352Z 30010KT 6SM BR OVC005 11/09 A3021 RMK AO2 DZE24 SLP227 CIG 004V007 P0000 T01060094
KATL 011452Z 34006KT 1 1/4SM BR OVC004 10/09 A3024 RMK AO2 SFC VIS 5 SLP238 CIG 003V005 TWRINC 60000 T01000089 53023
KATL 011552Z 33008G18KT 6SM BR BKN004 OVC010 10/09 A3026 RMK AO2 SLP247 CIG 003V006 T01000089
KATL 011652Z 31006KT 10SM SCT009 OVC022 12/08 A3024 RMK AO2 SLP241 BINOVC T01170083
KATL 011801Z 30006KT 10SM FEW014 SCT024 OVC048 13/09 A3021 RMK AO2 T01280089
KATL 011852Z 29005KT 10SM FEW026 BKN048 BKN200 BKN250 13/09 A3019 RMK AO2 SLP222 T01330089
KATL 011952Z 32006KT 10SM FEW026 SCT065 SCT100 BKN200 BKN250 14/09 A3017 RMK AO2 SLP214 T01390089
KATL 012052Z 33005KT 10SM BKN020 BKN065 BKN110 BKN200 14/09 A3016 RMK AO2 SLP211 T01390089 56019
KATL 012152Z 30006KT 10SM BKN019 BKN110 OVC200 14/09 A3018 RMK AO2 SLP216 T01390089
KATL 012252Z 29004KT 10SM BKN022 OVC120 14/09 A3019 RMK AO2 SLP222 T01390094

KPHX - Phoenix/Sky Harbor, AZ, US

Updated at: 2300 UTC 01 Feb 2023
Potential Impact None Slight Moderate High
Time 01/11Z 01/12Z 01/13Z 01/14Z 01/15Z 01/16Z 01/17Z 01/18Z 01/19Z 01/20Z 01/21Z 01/22Z 01/23Z
Temp46 45 45 43 45 49 53 57 60 62 66 67 67
Dewpt38 37 36 36 35 35 32 29 29 28 27 24 29
Altim30.03 30.03 30.03 30.04 30.05 30.07 30.09 30.10 30.08 30.05 30.03 30.02 30.02
VIS10 10 10 10 10 10 10 10 10 10 10 10 10
CIG-- -- -- -- -- -- -- -- -- -- -- -- --
CoverSCTFEWFEWFEWFEWFEWFEWFEWFEWFEWFEWFEWFEW
FltCatVFRVFRVFRVFRVFRVFRVFRVFRVFRVFRVFRVFRVFR
WX--------------------------
WDir23002300002700260280240260270
WSpd3 0 3 0 0 0 4 3 4 5 5 6 10
WGst-- -- -- -- -- -- -- -- -- -- -- 15 --
Raw hourly METARs
KPHX 011051Z 23003KT 10SM SCT100 08/03 A3003 RMK AO2 SLP163 T00780033
KPHX 011151Z 00000KT 10SM FEW100 07/03 A3003 RMK AO2 SLP164 T00720028 10106 20072 51005
KPHX 011251Z 23003KT 10SM FEW100 07/02 A3003 RMK AO2 SLP164 T00720022
KPHX 011351Z 00000KT 10SM FEW100 06/02 A3004 RMK AO2 SLP168 T00610022
KPHX 011451Z 00000KT 10SM FEW100 07/02 A3005 RMK AO2 SLP174 T00720017 53008
KPHX 011551Z 00000KT 10SM FEW100 09/02 A3007 RMK AO2 SLP179 T00940017
KPHX 011651Z 27004KT 10SM FEW100 12/00 A3009 RMK AO2 SLP185 T01170000
KPHX 011751Z VRB03KT 10SM FEW100 14/M02 A3010 RMK AO2 SLP186 T01391017 10139 20061 51014
KPHX 011851Z 26004KT 10SM FEW100 16/M02 A3008 RMK AO2 SLP180 T01561017
KPHX 011951Z 28005KT 10SM FEW250 17/M02 A3005 RMK AO2 SLP169 T01671022
KPHX 012051Z 24005KT 10SM FEW250 19/M03 A3003 RMK AO2 SLP160 T01891028 58024
KPHX 012151Z 26006G15KT 10SM FEW090 19/M04 A3002 RMK AO2 SLP158 T01941044
KPHX 012251Z 27010KT 10SM FEW090 19/M02 A3002 RMK AO2 SLP159 T01941017

KDFW - Dallas-Ft Worth Intl, TX, US

Updated at: 2300 UTC 01 Feb 2023
Potential Impact None Slight Moderate High
Time 01/11Z 01/12Z 01/13Z 01/14Z 01/15Z 01/16Z 01/17Z 01/18Z 01/19Z 01/20Z 01/21Z 01/22Z 01/23Z
Temp28 28 28 28 28 29 29 30 29 29 29 29 30
Dewpt18 17 18 18 19 21 22 23 24 24 24 25 26
Altim30.36 30.34 30.34 30.35 30.37 30.41 30.39 30.37 30.35 30.30 30.29 30.30 30.34
VIS10 10 10 10 10 10 10 10 7 10 7 10 2
CIG120 120 110 110 90 85 100 80 75 80 12 12 11
CoverOVCOVCOVCOVCOVCOVCOVCOVCOVCOVCOVCOVCOVC
FltCatVFRVFRVFRVFRVFRVFRVFRVFRVFRVFRMVFRMVFRIFR
WX---------FZRA PL-FZRA-FZRA-FZRA-FZRA-FZRA-FZRA-FZRAFZRA BR
WDir35010360360103501010330350340350330
WSpd8 7 11 11 8 6 7 6 8 8 5 8 11
WGst-- -- -- -- -- -- -- -- -- -- -- -- --
Raw hourly METARs
KDFW 011053Z 35008KT 10SM OVC120 M02/M08 A3036 RMK AO2 SLP285 T10221078
KDFW 011153Z 01007KT 10SM OVC120 M02/M08 A3034 RMK AO2 SLP278 70035 T10221083 11017 21022 58006
KDFW 011253Z 36011KT 10SM OVC110 M02/M08 A3034 RMK AO2 SLP279 T10221078
KDFW 011353Z 36011KT 10SM OVC110 M02/M08 A3035 RMK AO2 SLP282 T10221078
KDFW 011453Z 01008KT 10SM -FZRAPL OVC090 M02/M07 A3037 RMK AO2 SLP289 FZDZB10E50FZRAB50PLB50 P0000 60000 I1000 I3000 T10221072 53010
KDFW 011553Z 35006KT 10SM -FZRA FEW028 BKN085 OVC100 M02/M06 A3041 RMK AO2 PRESRR SLP302 FZRAE21B30PLE21B30E51 P0001 I1000 T10171061
KDFW 011653Z 01007KT 10SM -FZRA SCT080 OVC100 M02/M06 A3039 RMK AO2 SLP294 P0001 I1000 T10171056
KDFW 011753Z 01006KT 10SM -FZRA FEW030 BKN080 OVC100 M01/M05 A3037 RMK AO2 SLP287 P0001 60003 I1001 I6001 T10111050 11011 21022 58002
KDFW 011853Z 33008KT 7SM -FZRA BKN075 OVC090 M02/M04 A3035 RMK AO2 SLP282 P0002 I1001 T10171044
KDFW 012004Z 35008KT 10SM -FZRA SCT014 BKN080 OVC095 M02/M04 A3030 RMK AO2 SCT V BKN P0000 I1000 T10171044
KDFW 012053Z 34005KT 7SM -FZRA BKN012 BKN065 OVC085 M02/M04 A3029 RMK AO2 SLP261 P0001 60005 I1001 I3002 T10171044 56025
KDFW 012153Z 35008KT 10SM -FZRA BKN012 BKN060 OVC085 M02/M04 A3030 RMK AO2 SLP263 P0004 I1002 T10171039
KDFW 012253Z 33011KT 2SM FZRA BR OVC011 M01/M03 A3034 RMK AO2 SFC VIS 2 1/2 SLP279 I1001 T10111033 PNO $

KSAN - San Diego Intl Arpt, CA, US

Updated at: 2300 UTC 01 Feb 2023
Potential Impact None Slight Moderate High
Time 01/11Z 01/12Z 01/13Z 01/14Z 01/15Z 01/16Z 01/17Z 01/18Z 01/19Z 01/20Z 01/21Z 01/22Z 01/23Z
Temp44 45 43 43 42 48 55 58 62 63 64 65 63
Dewpt35 34 33 32 33 34 31 32 31 32 34 39 33
Altim30.11 30.10 30.11 30.12 30.14 30.16 30.18 30.19 30.18 30.16 30.14 30.13 30.14
VIS10 10 10 10 10 10 10 10 10 10 10 10 10
CIG-- -- -- -- -- -- -- -- -- -- -- -- --
CoverCLRCLRCLRCLRFEWFEWFEWCLRCLRCLRCLRCLRFEW
FltCatVFRVFRVFRVFRVFRVFRVFRVFRVFRVFRVFRVFRVFR
WX--------------------------
WDir00000001700200260320320
WSpd0 0 0 0 0 0 0 4 0 4 4 4 6
WGst-- -- -- -- -- -- -- -- -- -- -- -- --
Raw hourly METARs
KSAN 011051Z 00000KT 10SM CLR 07/02 A3011 RMK AO2 SLP195 T00670017 $
KSAN 011151Z 00000KT 10SM CLR 07/01 A3010 RMK AO2 SLP194 T00720011 10100 20067 58002 $
KSAN 011251Z 00000KT 10SM CLR 06/01 A3011 RMK AO2 SLP196 T00610006 $
KSAN 011351Z 00000KT 10SM CLR 06/00 A3012 RMK AO2 SLP199 T00610000 $
KSAN 011451Z 00000KT 10SM FEW250 06/01 A3014 RMK AO2 SLP204 T00560006 53011 $
KSAN 011551Z 00000KT 10SM FEW250 09/01 A3016 RMK AO2 SLP212 T00890011 $
KSAN 011651Z 00000KT 10SM FEW250 13/M01 A3018 RMK AO2 SLP218 T01281006 $
KSAN 011751Z 17004KT 10SM CLR 14/00 A3019 RMK AO2 SLP222 T01440000 10144 20056 51018 $
KSAN 011851Z 00000KT 10SM CLR 17/M01 A3018 RMK AO2 SLP219 T01671006 $
KSAN 011951Z 20004KT 10SM CLR 17/00 A3016 RMK AO2 SLP212 T01720000 $
KSAN 012051Z 26004KT 10SM CLR 18/01 A3014 RMK AO2 SLP206 T01780011 58016 $
KSAN 012151Z 32004KT 10SM CLR 18/04 A3013 RMK AO2 SLP203 T01830039
KSAN 012251Z 32006KT 10SM FEW250 17/01 A3014 RMK AO2 SLP205 T01720006

KIAH - Houston/Bush Intl, TX, US

Updated at: 2300 UTC 01 Feb 2023
Potential Impact None Slight Moderate High
Time 01/11Z 01/12Z 01/13Z 01/14Z 01/15Z 01/16Z 01/17Z 01/18Z 01/19Z 01/20Z 01/21Z 01/22Z 01/23Z
Temp37 37 37 37 37 38 39 39 39 39 39 39 39
Dewpt35 35 35 35 36 37 37 37 37 38 38 38 38
Altim30.25 30.27 30.29 30.29 30.30 30.29 30.31 30.29 30.25 30.22 30.20 30.20 30.22
VIS7 7 7 2 2 7 7 7 7 5 5 5 1
CIG9 8 7 6 5 6 7 6 7 5 6 5 5
CoverOVCOVCOVCOVCOVCOVCOVCOVCOVCOVCOVCOVCOVC
FltCatIFRIFRIFRIFRIFRIFRIFRIFRIFRIFRIFRIFRIFR
WX-----RA-RA BRRA BR-RA------BRBRBRBR
WDir3603503403603401010101036036010330
WSpd14 9 7 8 6 9 11 8 12 13 11 7 8
WGst-- -- -- -- -- -- -- 16 -- -- -- -- --
Raw hourly METARs
KIAH 011053Z 36014KT 7SM OVC009 03/02 A3025 RMK AO2 SLP244 T00280017
KIAH 011153Z 35009KT 7SM OVC008 03/02 A3027 RMK AO2 SLP251 60001 70001 T00280017 10033 20028 51011
KIAH 011253Z 34007KT 7SM -RA OVC007 03/02 A3029 RMK AO2 RAB1159 PRESRR SLP259 P0003 T00280017
KIAH 011353Z 36008KT 2SM -RA BR OVC006 03/02 A3029 RMK AO2 SLP259 P0002 T00280017
KIAH 011453Z 34006KT 2SM RA BR BKN005 OVC025 03/02 A3030 RMK AO2 SLP262 P0002 60007 T00280022 51011
KIAH 011553Z 01009KT 7SM -RA BKN006 OVC029 03/03 A3029 RMK AO2 SLP258 P0005 T00330028
KIAH 011653Z 01011KT 7SM OVC007 04/03 A3031 RMK AO2 RAE34 SLP263 P0000 T00390028
KIAH 011753Z 01008G16KT 7SM OVC006 04/03 A3029 RMK AO2 RAB00E20B36E45 SLP257 P0000 60012 T00390028 10039 20022 58005
KIAH 011853Z 01012KT 7SM OVC007 04/03 A3025 RMK AO2 SLP244 T00390028
KIAH 011953Z 36013KT 5SM BR OVC005 04/03 A3022 RMK AO2 SLP235 T00390033
KIAH 012053Z 36011KT 5SM BR OVC006 04/03 A3020 RMK AO2 SLP228 T00390033 56029
KIAH 012153Z 01007KT 5SM BR OVC005 04/03 A3020 RMK AO2 SLP228 T00390033
KIAH 012253Z 33008KT 1SM BR OVC005 04/03 A3022 RMK AO2 SFC VIS 3 SLP234 T00390033

KMCO - Orlando Intl, FL, US

Updated at: 2300 UTC 01 Feb 2023
Potential Impact None Slight Moderate High
Time 01/11Z 01/12Z 01/13Z 01/14Z 01/15Z 01/16Z 01/17Z 01/18Z 01/19Z 01/20Z 01/21Z 01/22Z 01/23Z
Temp64 65 65 71 75 79 80 80 82 82 81 81 79
Dewpt63 63 64 66 65 63 61 62 62 62 62 62 62
Altim30.18 30.19 30.21 30.23 30.24 30.24 30.22 30.19 30.16 30.14 30.14 30.15 30.16
VIS6 10 9 10 10 10 10 10 10 10 10 10 10
CIG-- -- -- -- -- -- -- -- -- 60 55 60 60
CoverFEWFEWFEWSCTSCTSCTFEWSCTSCTBKNBKNBKNBKN
FltCatVFRVFRVFRVFRVFRVFRVFRVFRVFRVFRVFRVFRVFR
WXBR------------------------
WDir320310310310310280270260270310310300330
WSpd3 3 3 3 4 6 7 5 7 6 7 5 5
WGst-- -- -- -- -- -- -- -- -- -- -- -- --
Raw hourly METARs
KMCO 011053Z 32003KT 6SM BR FEW005 FEW050 18/17 A3018 RMK AO2 SLP217 T01780172
KMCO 011153Z 31003KT 10SM FEW055 FEW250 18/17 A3019 RMK AO2 SLP223 T01830172 10200 20172 53014
KMCO 011253Z 31003KT 9SM FEW055 18/18 A3021 RMK AO2 SLP228 T01830178
KMCO 011353Z 31003KT 10SM SCT055 22/19 A3023 RMK AO2 SLP233 T02170189
KMCO 011453Z 31004KT 10SM SCT055 24/18 A3024 RMK AO2 SLP238 T02390183 51015
KMCO 011553Z 28006KT 10SM FEW028 SCT060 26/17 A3024 RMK AO2 SLP239 T02610172
KMCO 011653Z 27007KT 230V320 10SM FEW036 27/16 A3022 RMK AO2 SLP232 T02670161
KMCO 011753Z 26005KT 10SM SCT040 27/17 A3019 RMK AO2 SLP222 T02670167 10278 20178 58016
KMCO 011853Z 27007KT 260V340 10SM SCT043 28/17 A3016 RMK AO2 SLP213 T02780167
KMCO 011953Z 31006KT 10SM SCT045 BKN060 28/17 A3014 RMK AO2 SLP206 T02780167
KMCO 012053Z 31007KT 10SM FEW045 BKN055 27/17 A3014 RMK AO2 SLP205 T02720167 56017
KMCO 012153Z 30005KT 10SM FEW047 BKN060 27/17 A3015 RMK AO2 SLP207 T02720167
KMCO 012253Z 33005KT 10SM FEW040 BKN060 26/17 A3016 RMK AO2 SLP210 T02610167

KTPA - Tampa Intl Arpt, FL, US

Updated at: 2300 UTC 01 Feb 2023
Potential Impact None Slight Moderate High
Time 01/11Z 01/12Z 01/13Z 01/14Z 01/15Z 01/16Z 01/17Z 01/18Z 01/19Z 01/20Z 01/21Z 01/22Z 01/23Z
Temp65 66 67 68 72 77 77 78 78 79 79 78 76
Dewpt64 64 64 65 66 66 65 67 66 66 66 65 65
Altim30.19 30.21 30.22 30.24 30.25 30.26 30.24 30.22 30.19 30.17 30.16 30.16 30.17
VIS10 10 9 10 10 10 10 10 10 10 10 10 10
CIG50 120 32 32 29 -- -- -- -- -- -- -- --
CoverBKNBKNBKNBKNOVCSCTSCTSCTSCTFEWFEWFEWFEW
FltCatVFRVFRVFRVFRMVFRVFRVFRVFRVFRVFRVFRVFRVFR
WX--------------------------
WDir00300002302402300220250280
WSpd0 0 3 0 0 3 4 5 6 4 3 4 4
WGst-- -- -- -- -- -- -- -- -- -- -- -- --
Raw hourly METARs
KTPA 011053Z 00000KT 10SM BKN050 18/18 A3019 RMK AO2 SLP224 T01830178
KTPA 011153Z 00000KT 10SM FEW050 BKN120 19/18 A3021 RMK AO2 SLP228 T01890178 10194 20178 53011
KTPA 011253Z 03003KT 9SM BKN032 BKN050 19/18 A3022 RMK AO2 SLP233 T01940178
KTPA 011353Z 00000KT 10SM SCT027 BKN032 BKN050 20/18 A3024 RMK AO2 SLP239 T02000183
KTPA 011453Z 00000KT 10SM SCT025 BKN029 OVC036 22/19 A3025 RMK AO2 SLP244 T02220189 53016
KTPA 011553Z VRB03KT 10SM FEW025 SCT035 25/19 A3026 RMK AO2 SLP245 T02500189
KTPA 011653Z 23004KT 10SM FEW025 SCT035 25/18 A3024 RMK AO2 SLP239 T02500183
KTPA 011753Z COR 24005KT 10SM FEW030 SCT050 26/19 A3022 RMK AO2 SLP233 T02560194 10261 20183 58012
KTPA 011853Z 23006KT 10SM SCT060 26/19 A3019 RMK AO2 SLP222 T02560189
KTPA 011953Z COR VRB04KT 10SM FEW060 26/19 A3017 RMK AO2 SLP214 T02610189
KTPA 012053Z 22003KT 10SM FEW055 26/19 A3016 RMK AO2 SLP212 T02610189 56020
KTPA 012153Z 25004KT 10SM FEW055 26/18 A3016 RMK AO2 SLP213 T02560183
KTPA 012253Z 28004KT 10SM FEW050 24/18 A3017 RMK AO2 SLP217 T02440183

KFLL - Ft Lauderdale-Hollyw, FL, US

Updated at: 2300 UTC 01 Feb 2023
Potential Impact None Slight Moderate High
Time 01/11Z 01/12Z 01/13Z 01/14Z 01/15Z 01/16Z 01/17Z 01/18Z 01/19Z 01/20Z 01/21Z 01/22Z 01/23Z
Temp70 69 71 76 79 80 81 82 81 81 80 80 78
Dewpt67 66 67 69 69 68 68 69 68 67 67 68 68
Altim30.16 30.17 30.20 30.21 30.23 30.23 30.21 30.19 30.16 30.15 30.14 30.15 30.16
VIS10 10 10 10 10 10 10 10 10 10 10 10 10
CIG-- -- -- -- -- -- -- -- -- -- -- -- --
CoverFEWFEWSCTFEWFEWSCTSCTSCTFEWFEWFEWFEWFEW
FltCatVFRVFRVFRVFRVFRVFRVFRVFRVFRVFRVFRVFRVFR
WX--------------------------
WDir00000140120120130120150140130
WSpd0 0 0 0 3 7 9 11 11 11 10 10 10
WGst-- -- -- -- -- -- -- -- -- -- -- -- --
Raw hourly METARs
KFLL 011053Z 00000KT 10SM FEW023 21/19 A3016 RMK AO2 SLP212 T02110194
KFLL 011153Z 00000KT 10SM FEW023 21/19 A3017 RMK AO2 SLP217 T02060189 10239 20206 53011
KFLL 011253Z 00000KT 10SM SCT023 22/19 A3020 RMK AO2 SLP225 T02170194
KFLL 011353Z 00000KT 10SM FEW023 24/21 A3021 RMK AO2 SLP228 T02440206
KFLL 011453Z VRB03KT 10SM FEW023 26/21 A3023 RMK AO2 SLP237 T02610206 53020
KFLL 011553Z 14007KT 10SM SCT027 27/20 A3023 RMK AO2 SLP237 T02670200
KFLL 011653Z 12009KT 10SM SCT027 27/20 A3021 RMK AO2 SLP230 T02720200
KFLL 011753Z 12011KT 10SM SCT030 28/21 A3019 RMK AO2 SLP222 T02780206 10278 20206 58015
KFLL 011853Z 13011KT 10SM FEW033 27/20 A3016 RMK AO2 SLP212 T02720200
KFLL 011953Z 12011KT 10SM FEW035 27/19 A3015 RMK AO2 SLP209 T02720194
KFLL 012053Z 15010KT 10SM FEW035 27/19 A3014 RMK AO2 SLP207 T02670194 56015
KFLL 012153Z 14010KT 10SM FEW035 27/20 A3015 RMK AO2 SLP209 T02670200
KFLL 012253Z 13010KT 10SM FEW034 FEW250 26/20 A3016 RMK AO2 SLP214 T02560200

KMIA - Miami Intl, FL, US

Updated at: 2300 UTC 01 Feb 2023
Potential Impact None Slight Moderate High
Time 01/11Z 01/12Z 01/13Z 01/14Z 01/15Z 01/16Z 01/17Z 01/18Z 01/19Z 01/20Z 01/21Z 01/22Z 01/23Z
Temp69 71 75 78 79 82 83 84 84 83 82 80 78
Dewpt68 70 71 71 68 68 68 68 68 69 69 68 69
Altim30.17 30.18 30.20 30.22 30.24 30.24 30.22 30.20 30.17 30.16 30.15 30.16 30.17
VIS10 10 10 10 10 10 10 10 10 10 10 10 10
CIG-- -- -- -- 30 -- 31 -- -- -- -- -- --
CoverFEWSCTFEWSCTBKNSCTBKNSCTSCTSCTFEWFEWFEW
FltCatVFRVFRVFRVFRMVFRVFRVFRVFRVFRVFRVFRVFRVFR
WX--------------------------
WDir0000130110130110130140130140130
WSpd0 0 0 3 7 9 7 10 9 8 9 8 9
WGst-- -- -- -- -- -- -- -- -- 14 -- -- --
Raw hourly METARs
KMIA 011053Z 00000KT 10SM FEW025 21/20 A3017 RMK AO2 SLP215 T02060200 $
KMIA 011153Z 00000KT 10SM SCT020 22/21 A3018 RMK AO2 SLP221 T02170211 10228 20206 53012 $
KMIA 011253Z 00000KT 10SM FEW021 24/22 A3020 RMK AO2 SLP227 T02390217 $
KMIA 011353Z VRB03KT 10SM SCT023 26/22 A3022 RMK AO2 SLP233 T02560217
KMIA 011453Z 13007KT 10SM SCT023 BKN030 26/20 A3024 RMK AO2 SLP241 T02610200 53020 $
KMIA 011553Z COR 11009KT 10SM SCT027 SCT035 28/20 A3024 RMK AO2 SLP241 T02780200 $
KMIA 011653Z 13007KT 100V180 10SM BKN031 28/20 A3022 RMK AO2 SLP235 T02830200 $
KMIA 011753Z 11010KT 10SM SCT031 29/20 A3020 RMK AO2 SLP226 T02890200 10289 20217 58015 $
KMIA 011853Z 13009KT 10SM SCT033 29/20 A3017 RMK AO2 SLP216 T02890200 $
KMIA 011953Z 14008G14KT 110V170 10SM SCT030 28/21 A3016 RMK AO2 SLP212 T02830206 $
KMIA 012053Z 13009KT 10SM FEW030 28/21 A3015 RMK AO2 SLP211 T02780206 56015 $
KMIA 012153Z 14008KT 10SM FEW030 27/20 A3016 RMK AO2 SLP213 T02670200 $
KMIA 012253Z 13009KT 10SM FEW030 26/21 A3017 RMK AO2 SLP218 T02560206 $



Page loaded:  23:14 UTC  |   03:14 PM Pacific  |   04:14 PM Mountain  |   05:14 PM Central  |   06:14 PM Eastern

 

ADVISORIES

FORECASTS

FORECASTS

OBSERVATIONS

USER TOOLS

ABOUT US